createdAt,value
2022-08-04T00:02:23.490Z,19.16
2022-08-04T00:05:00.822Z,19.14
2022-08-04T00:08:09.981Z,19.13
2022-08-04T00:10:41.362Z,19.09
2022-08-04T00:13:10.991Z,19.06
2022-08-04T00:15:40.163Z,19.05
2022-08-04T00:18:10.382Z,19.03
2022-08-04T00:20:40.717Z,19.01
2022-08-04T00:23:09.561Z,19.00
2022-08-04T00:25:44.354Z,19.00
2022-08-04T00:28:15.362Z,18.97
2022-08-04T00:30:43.286Z,18.99
2022-08-04T00:33:12.900Z,19.00
2022-08-04T00:35:42.049Z,18.98
2022-08-04T00:38:13.193Z,18.98
2022-08-04T00:41:07.795Z,18.98
2022-08-04T00:44:14.490Z,18.99
2022-08-04T00:47:27.777Z,18.98
2022-08-04T00:50:11.011Z,18.95
2022-08-04T00:53:06.892Z,18.92
2022-08-04T00:55:52.953Z,18.90
2022-08-04T00:59:03.471Z,18.87
2022-08-04T01:01:52.278Z,18.85
2022-08-04T01:04:38.576Z,18.83
2022-08-04T01:07:30.014Z,18.81
2022-08-04T01:13:46.620Z,18.75
2022-08-04T01:16:24.168Z,18.70
2022-08-04T01:19:06.309Z,18.67
2022-08-04T01:21:59.172Z,18.64
2022-08-04T01:25:08.182Z,18.57
2022-08-04T01:28:42.919Z,18.42
2022-08-04T01:31:29.055Z,18.30
2022-08-04T01:34:04.117Z,18.18
2022-08-04T01:36:50.124Z,18.08
2022-08-04T01:39:40.199Z,17.98
2022-08-04T01:42:31.721Z,17.90
2022-08-04T01:45:06.698Z,17.82
2022-08-04T01:47:42.877Z,17.75
2022-08-04T01:50:17.811Z,17.68
2022-08-04T01:52:51.335Z,17.63
2022-08-04T01:55:24.467Z,17.60
2022-08-04T01:58:19.906Z,17.55
2022-08-04T02:01:00.091Z,17.51
2022-08-04T02:04:18.455Z,17.47
2022-08-04T02:06:47.224Z,17.39
2022-08-04T02:09:54.666Z,17.31
2022-08-04T02:13:00.705Z,17.23
2022-08-04T02:16:05.515Z,17.18
2022-08-04T02:19:07.582Z,17.14
2022-08-04T02:21:57.265Z,17.11
2022-08-04T02:24:33.684Z,17.10
2022-08-04T02:27:05.811Z,17.08
2022-08-04T02:30:03.878Z,17.10
2022-08-04T02:32:40.346Z,17.10
2022-08-04T02:35:23.482Z,17.10
2022-08-04T02:38:14.737Z,17.10
2022-08-04T02:40:47.556Z,17.10
2022-08-04T02:43:50.848Z,17.13
2022-08-04T02:46:17.719Z,17.15
2022-08-04T02:48:52.190Z,17.16
2022-08-04T02:51:32.367Z,17.16
2022-08-04T02:54:05.959Z,17.18
2022-08-04T02:56:41.480Z,17.20
2022-08-04T02:59:28.072Z,17.22
2022-08-04T03:02:07.360Z,17.25
2022-08-04T03:05:18.575Z,17.27
2022-08-04T03:08:39.991Z,17.29
2022-08-04T03:11:28.413Z,17.29
2022-08-04T03:15:20.343Z,17.28
2022-08-04T03:18:29.784Z,17.27
2022-08-04T03:21:54.794Z,17.26
2022-08-04T03:25:01.780Z,17.27
2022-08-04T03:28:26.811Z,17.29
2022-08-04T03:31:39.971Z,17.32
2022-08-04T03:34:45.097Z,17.34
2022-08-04T03:37:55.759Z,17.35
2022-08-04T03:40:50.548Z,17.34
2022-08-04T03:43:59.984Z,17.31
2022-08-04T03:47:24.656Z,17.34
2022-08-04T03:50:42.411Z,17.36
2022-08-04T03:54:13.048Z,17.37
2022-08-04T03:57:15.048Z,17.44
2022-08-04T04:00:08.318Z,17.49
2022-08-04T04:02:59.061Z,17.56
2022-08-04T04:06:12.305Z,17.60
2022-08-04T04:09:33.983Z,17.64
2022-08-04T04:12:41.381Z,17.70
2022-08-04T04:15:19.162Z,17.76
2022-08-04T04:18:19.558Z,17.82
2022-08-04T04:21:30.758Z,17.90
2022-08-04T04:24:42.036Z,17.96
2022-08-04T04:27:53.826Z,18.03
2022-08-04T04:31:06.597Z,18.10
2022-08-04T04:34:00.647Z,18.22
2022-08-04T04:36:53.880Z,18.30
2022-08-04T04:40:14.315Z,18.41
2022-08-04T04:43:52.629Z,18.55
2022-08-04T04:47:12.348Z,18.72
2022-08-04T04:50:30.044Z,18.82
2022-08-04T04:53:24.703Z,18.93
2022-08-04T04:56:31.507Z,19.04
2022-08-04T04:59:14.369Z,19.16
2022-08-04T05:02:34.954Z,19.28
2022-08-04T05:06:02.649Z,19.45
2022-08-04T05:09:19.119Z,19.64
2022-08-04T05:15:47.276Z,19.89
2022-08-04T05:18:27.620Z,20.00
2022-08-04T05:21:23.928Z,20.11
2022-08-04T05:24:01.378Z,20.26
2022-08-04T05:26:40.316Z,20.41
2022-08-04T05:29:25.986Z,20.55
2022-08-04T05:32:05.798Z,20.70
2022-08-04T05:34:45.126Z,20.85
2022-08-04T05:37:20.140Z,20.96
2022-08-04T05:39:58.941Z,21.10
2022-08-04T05:42:31.620Z,21.23
2022-08-04T05:45:03.595Z,21.36
2022-08-04T05:47:36.945Z,21.49
2022-08-04T05:50:14.128Z,21.62
2022-08-04T05:52:46.219Z,21.74
2022-08-04T05:55:57.557Z,21.86
2022-08-04T05:58:11.603Z,22.01
2022-08-04T06:00:51.603Z,22.16
2022-08-04T06:03:28.485Z,22.28
2022-08-04T06:05:59.318Z,22.39
2022-08-04T06:08:34.355Z,22.49
2022-08-04T06:11:11.665Z,22.61
2022-08-04T06:13:55.192Z,22.75
2022-08-04T06:16:31.845Z,22.87
2022-08-04T06:20:00.271Z,22.99
2022-08-04T06:22:03.844Z,23.14
2022-08-04T06:24:35.515Z,23.21
2022-08-04T06:27:08.612Z,23.34
2022-08-04T06:29:51.600Z,23.47
2022-08-04T06:32:41.867Z,23.61
2022-08-04T06:35:12.328Z,23.72
2022-08-04T06:37:44.342Z,23.76
2022-08-04T06:40:31.459Z,23.86
2022-08-04T06:43:11.998Z,24.00
2022-08-04T06:45:43.233Z,24.16
2022-08-04T06:48:16.596Z,24.33
2022-08-04T06:51:32.024Z,24.53
2022-08-04T06:53:40.786Z,24.67
2022-08-04T06:56:12.252Z,24.81
2022-08-04T06:58:43.158Z,24.96
2022-08-04T07:01:15.703Z,25.10
2022-08-04T07:03:45.506Z,25.27
2022-08-04T07:06:24.418Z,25.46
2022-08-04T07:08:56.241Z,25.67
2022-08-04T07:11:29.107Z,25.82
2022-08-04T07:14:11.340Z,25.98
2022-08-04T07:16:42.527Z,26.14
2022-08-04T07:19:15.906Z,26.27
2022-08-04T07:22:16.408Z,26.44
2022-08-04T07:24:48.656Z,26.61
2022-08-04T07:28:08.460Z,26.74
2022-08-04T07:31:03.415Z,27.02
2022-08-04T07:37:06.278Z,31.16
2022-08-04T07:39:48.093Z,33.20
2022-08-04T07:42:25.889Z,35.00
2022-08-04T07:44:56.719Z,36.44
2022-08-04T07:47:27.927Z,37.33
2022-08-04T07:49:59.499Z,38.25
2022-08-04T07:52:34.860Z,39.15
2022-08-04T07:55:10.501Z,40.05
2022-08-04T07:57:40.270Z,40.65
2022-08-04T08:00:36.304Z,41.38
2022-08-04T08:03:09.188Z,41.87
2022-08-04T08:06:17.199Z,42.08
2022-08-04T08:08:40.982Z,42.08
2022-08-04T08:12:35.442Z,42.23
2022-08-04T08:14:48.163Z,42.59
2022-08-04T08:17:59.460Z,42.87
2022-08-04T08:21:02.050Z,43.27
2022-08-04T08:23:37.689Z,43.58
2022-08-04T08:26:10.239Z,43.79
2022-08-04T08:28:40.958Z,44.11
2022-08-04T08:31:11.418Z,44.42
2022-08-04T08:33:45.362Z,44.43
2022-08-04T08:36:49.603Z,44.40
2022-08-04T08:39:29.427Z,44.65
2022-08-04T08:42:32.799Z,44.33
2022-08-04T08:45:20.935Z,44.01
2022-08-04T08:48:23.175Z,43.99
2022-08-04T08:51:22.815Z,44.26
2022-08-04T08:54:13.053Z,44.26
2022-08-04T08:57:22.749Z,44.05
2022-08-04T09:00:21.282Z,43.36
2022-08-04T09:03:17.412Z,43.66
2022-08-04T09:06:10.416Z,44.21
2022-08-04T09:09:03.720Z,44.39
2022-08-04T09:16:27.298Z,43.94
2022-08-04T09:19:39.021Z,44.16
2022-08-04T09:22:50.888Z,44.39
2022-08-04T09:26:26.678Z,43.84
2022-08-04T09:29:46.490Z,43.48
2022-08-04T09:36:25.986Z,43.57
2022-08-04T09:53:58.484Z,40.71
2022-08-04T09:57:18.890Z,40.30
2022-08-04T10:00:08.171Z,39.67
2022-08-04T10:06:39.031Z,39.22
2022-08-04T10:10:14.309Z,39.21
2022-08-04T10:16:57.497Z,38.88
2022-08-04T10:23:21.906Z,38.28
2022-08-04T10:26:28.787Z,38.15
2022-08-04T10:29:09.876Z,38.15
2022-08-04T10:32:08.490Z,37.99
2022-08-04T10:35:29.078Z,37.91
2022-08-04T10:38:18.559Z,37.54
2022-08-04T10:41:02.740Z,37.33
2022-08-04T10:44:09.666Z,37.26
2022-08-04T10:50:02.509Z,36.76
2022-08-04T10:53:26.560Z,36.03
2022-08-04T10:56:20.542Z,35.93
2022-08-04T10:59:02.367Z,35.79
2022-08-04T11:08:11.479Z,35.47
2022-08-04T11:11:21.521Z,35.57
2022-08-04T11:14:00.002Z,35.62
2022-08-04T11:17:16.091Z,35.07
2022-08-04T11:20:39.401Z,34.90
2022-08-04T11:46:05.712Z,35.28
2022-08-04T11:49:28.422Z,35.34
2022-08-04T11:52:46.390Z,35.53
2022-08-04T11:55:21.811Z,35.40
2022-08-04T11:57:54.849Z,34.83
2022-08-04T12:00:39.456Z,34.75
2022-08-04T12:04:03.401Z,34.96
2022-08-04T12:07:30.036Z,34.96
2022-08-04T12:10:50.785Z,35.06
2022-08-04T12:13:55.317Z,34.99
2022-08-04T12:16:41.807Z,34.95
2022-08-04T12:19:22.215Z,34.80
2022-08-04T12:22:02.652Z,34.67
2022-08-04T12:24:46.558Z,34.85
2022-08-04T12:27:26.878Z,34.99
2022-08-04T12:31:00.654Z,34.91
2022-08-04T12:34:03.817Z,34.71
2022-08-04T12:36:45.706Z,34.67
2022-08-04T12:39:22.713Z,35.00
2022-08-04T12:41:59.344Z,35.01
2022-08-04T12:44:39.008Z,34.73
2022-08-04T12:47:26.518Z,34.68
2022-08-04T12:50:04.310Z,34.79
2022-08-04T12:53:02.517Z,34.83
2022-08-04T12:55:36.112Z,34.63
2022-08-04T12:58:43.541Z,34.41
2022-08-04T13:02:09.698Z,34.37
2022-08-04T13:04:34.465Z,34.27
2022-08-04T13:07:18.174Z,34.32
2022-08-04T13:09:50.673Z,34.25
2022-08-04T13:12:32.008Z,34.33
2022-08-04T13:15:19.949Z,34.36
2022-08-04T13:18:15.210Z,34.42
2022-08-04T13:20:47.655Z,34.42
2022-08-04T13:23:21.895Z,34.32
2022-08-04T13:26:43.303Z,34.28
2022-08-04T13:28:50.911Z,34.27
2022-08-04T13:31:26.384Z,34.31
2022-08-04T13:34:19.037Z,34.36
2022-08-04T13:36:57.547Z,34.19
2022-08-04T13:39:29.907Z,34.10
2022-08-04T13:46:27.969Z,33.94
2022-08-04T13:49:28.387Z,34.05
2022-08-04T13:51:59.039Z,34.17
2022-08-04T13:54:42.708Z,34.15
2022-08-04T13:57:32.758Z,34.23
2022-08-04T14:00:10.143Z,34.36
2022-08-04T14:02:59.582Z,34.30
2022-08-04T14:08:54.959Z,33.90
2022-08-04T14:12:06.614Z,33.93
2022-08-04T14:14:55.135Z,33.96
2022-08-04T14:17:30.789Z,33.93
2022-08-04T14:20:04.489Z,33.78
2022-08-04T14:22:38.086Z,33.70
2022-08-04T14:25:18.794Z,33.68
2022-08-04T14:27:53.529Z,33.70
2022-08-04T14:30:50.807Z,33.75
2022-08-04T14:34:04.176Z,33.84
2022-08-04T14:37:13.345Z,33.98
2022-08-04T14:40:18.538Z,33.89
2022-08-04T14:42:54.272Z,33.82
2022-08-04T14:45:54.331Z,33.73
2022-08-04T14:48:26.791Z,33.49
2022-08-04T14:50:56.374Z,33.30
2022-08-04T14:53:27.488Z,33.26
2022-08-04T14:56:30.767Z,33.14
2022-08-04T14:59:11.900Z,32.95
2022-08-04T15:01:45.274Z,32.95
2022-08-04T15:04:32.082Z,32.88
2022-08-04T15:07:05.044Z,32.87
2022-08-04T15:09:34.579Z,32.88
2022-08-04T15:12:07.581Z,32.80
2022-08-04T15:14:39.164Z,32.77
2022-08-04T15:17:29.806Z,32.78
2022-08-04T15:20:02.875Z,32.82
2022-08-04T15:22:34.255Z,32.71
2022-08-04T15:25:06.524Z,32.62
2022-08-04T15:27:43.043Z,32.53
2022-08-04T15:30:15.905Z,32.48
2022-08-04T15:32:51.746Z,32.43
2022-08-04T15:35:29.009Z,32.39
2022-08-04T15:38:08.823Z,32.35
2022-08-04T15:40:46.014Z,32.27
2022-08-04T15:43:46.678Z,32.26
2022-08-04T15:46:44.845Z,32.21
2022-08-04T15:49:25.849Z,32.17
2022-08-04T15:52:12.593Z,32.08
2022-08-04T15:54:52.655Z,32.02
2022-08-04T15:58:02.261Z,31.99
2022-08-04T16:01:04.185Z,31.93
2022-08-04T16:04:01.009Z,31.85
2022-08-04T16:06:44.068Z,31.75
2022-08-04T16:09:45.148Z,31.59
2022-08-04T16:12:55.992Z,31.38
2022-08-04T16:15:45.430Z,31.17
2022-08-04T16:18:31.813Z,31.18
2022-08-04T16:21:18.916Z,31.22
2022-08-04T16:24:05.913Z,31.17
2022-08-04T16:27:00.915Z,31.15
2022-08-04T16:30:07.585Z,31.15
2022-08-04T16:32:59.429Z,31.19
2022-08-04T16:35:29.531Z,31.21
2022-08-04T16:38:16.398Z,31.17
2022-08-04T16:40:45.744Z,31.01
2022-08-04T16:43:17.123Z,30.89
2022-08-04T16:45:53.056Z,30.81
2022-08-04T16:48:33.658Z,30.60
2022-08-04T16:51:11.129Z,30.43
2022-08-04T16:53:58.770Z,30.36
2022-08-04T16:56:35.823Z,30.25
2022-08-04T16:59:15.557Z,30.16
2022-08-04T17:01:51.721Z,30.10
2022-08-04T17:04:32.401Z,29.97
2022-08-04T17:07:03.946Z,29.87
2022-08-04T17:09:33.447Z,29.75
2022-08-04T17:12:05.560Z,29.65
2022-08-04T17:14:35.028Z,29.55
2022-08-04T17:17:08.851Z,29.50
2022-08-04T17:19:38.343Z,29.44
2022-08-04T17:22:11.551Z,29.34
2022-08-04T17:24:43.534Z,29.26
2022-08-04T17:28:09.511Z,29.15
2022-08-04T17:30:04.403Z,29.03
2022-08-04T17:32:35.099Z,28.89
2022-08-04T17:35:08.348Z,28.75
2022-08-04T17:37:52.582Z,28.61
2022-08-04T17:40:26.751Z,28.46
2022-08-04T17:44:05.007Z,28.35
2022-08-04T17:46:37.542Z,28.24
2022-08-04T17:49:52.716Z,28.13
2022-08-04T17:52:41.519Z,28.01
2022-08-04T17:58:22.806Z,27.81
2022-08-04T18:01:24.303Z,27.71
2022-08-04T18:03:58.602Z,27.60
2022-08-04T18:06:29.407Z,27.51
2022-08-04T18:09:21.980Z,27.40
2022-08-04T18:12:00.174Z,27.28
2022-08-04T18:14:45.839Z,27.16
2022-08-04T18:18:21.826Z,27.06
2022-08-04T18:20:51.983Z,26.90
2022-08-04T18:23:31.330Z,26.80
2022-08-04T18:28:54.376Z,26.58
2022-08-04T18:31:27.727Z,26.49
2022-08-04T18:33:59.350Z,26.43
2022-08-04T18:36:37.792Z,26.34
2022-08-04T18:39:13.123Z,26.23
2022-08-04T18:42:02.465Z,26.14
2022-08-04T18:44:53.239Z,26.02
2022-08-04T18:47:29.540Z,25.92
2022-08-04T18:50:58.644Z,25.80
2022-08-04T18:52:53.258Z,25.67
2022-08-04T18:55:55.339Z,25.56
2022-08-04T18:58:20.466Z,25.46
2022-08-04T19:01:01.265Z,25.39
2022-08-04T19:03:35.027Z,25.35
2022-08-04T19:06:10.687Z,25.29
2022-08-04T19:11:38.081Z,25.22
2022-08-04T19:14:25.245Z,25.17
2022-08-04T19:16:56.374Z,25.13
2022-08-04T19:19:47.379Z,25.08
2022-08-04T19:22:35.665Z,25.02
2022-08-04T19:25:12.874Z,24.96
2022-08-04T19:27:47.308Z,24.90
2022-08-04T19:30:28.385Z,24.83
2022-08-04T19:33:03.474Z,24.78
2022-08-04T19:35:36.384Z,24.72
2022-08-04T19:38:19.264Z,24.67
2022-08-04T19:40:52.815Z,24.61
2022-08-04T19:43:24.725Z,24.56
2022-08-04T19:45:55.574Z,24.51
2022-08-04T19:48:30.165Z,24.46
2022-08-04T19:51:00.795Z,24.42
2022-08-04T19:53:37.368Z,24.37
2022-08-04T19:56:09.772Z,24.32
2022-08-04T19:58:42.372Z,24.29
2022-08-04T20:01:33.357Z,24.24
2022-08-04T20:04:11.428Z,24.17
2022-08-04T20:06:44.608Z,24.12
2022-08-04T20:09:26.555Z,24.06
2022-08-04T20:11:59.135Z,24.01
2022-08-04T20:14:32.628Z,23.98
2022-08-04T20:17:10.376Z,23.94
2022-08-04T20:19:51.399Z,23.90
2022-08-04T20:22:52.225Z,23.85
2022-08-04T20:25:35.945Z,23.79
2022-08-04T20:28:06.635Z,23.75
2022-08-04T20:30:38.109Z,23.71
2022-08-04T20:33:08.711Z,23.67
2022-08-04T20:36:05.846Z,23.62
2022-08-04T20:38:37.027Z,23.55
2022-08-04T20:41:08.956Z,23.51
2022-08-04T20:46:40.761Z,23.37
2022-08-04T20:49:10.612Z,23.32
2022-08-04T20:51:47.132Z,23.27
2022-08-04T20:54:26.437Z,23.23
2022-08-04T20:56:59.685Z,23.18
2022-08-04T20:59:30.096Z,23.14
2022-08-04T21:01:59.714Z,23.08
2022-08-04T21:04:36.993Z,23.02
2022-08-04T21:07:10.189Z,22.96
2022-08-04T21:09:50.681Z,22.91
2022-08-04T21:12:27.419Z,22.85
2022-08-04T21:15:13.314Z,22.80
2022-08-04T21:20:42.365Z,22.70
2022-08-04T21:23:14.630Z,22.66
2022-08-04T21:25:51.377Z,22.61
2022-08-04T21:28:21.331Z,22.55
2022-08-04T21:30:59.976Z,22.53
2022-08-04T21:33:50.519Z,22.51
2022-08-04T21:36:23.154Z,22.50
2022-08-04T21:38:59.677Z,22.47
2022-08-04T21:41:30.347Z,22.45
2022-08-04T21:48:31.358Z,22.34
2022-08-04T21:51:57.000Z,22.29
2022-08-04T21:54:17.564Z,22.24
2022-08-04T21:56:51.553Z,22.19
2022-08-04T21:59:30.734Z,22.14
2022-08-04T22:02:03.535Z,22.09
2022-08-04T22:04:37.926Z,22.07
2022-08-04T22:07:09.366Z,22.03
2022-08-04T22:09:41.382Z,22.02
2022-08-04T22:12:21.119Z,22.00
2022-08-04T22:14:57.545Z,21.97
2022-08-04T22:17:35.409Z,21.94
2022-08-04T22:20:07.153Z,21.92
2022-08-04T22:23:15.450Z,21.91
2022-08-04T22:25:53.634Z,21.90
2022-08-04T22:28:31.752Z,21.89
2022-08-04T22:31:23.932Z,21.85
2022-08-04T22:33:59.239Z,21.82
2022-08-04T22:36:30.178Z,21.80
2022-08-04T22:39:07.251Z,21.78
2022-08-04T22:41:48.756Z,21.75
2022-08-04T22:44:32.243Z,21.71
2022-08-04T22:47:03.886Z,21.66
2022-08-04T22:49:37.549Z,21.61
2022-08-04T22:52:10.478Z,21.57
2022-08-04T22:54:51.450Z,21.52
2022-08-04T22:57:43.036Z,21.48
2022-08-04T23:00:11.477Z,21.46
2022-08-04T23:02:43.326Z,21.43
2022-08-04T23:05:16.851Z,21.37
2022-08-04T23:07:51.223Z,21.34
2022-08-04T23:10:24.375Z,21.32
2022-08-04T23:12:56.874Z,21.28
2022-08-04T23:15:33.565Z,21.24
2022-08-04T23:18:06.087Z,21.21
2022-08-04T23:20:39.352Z,21.18
2022-08-04T23:23:14.666Z,21.13
2022-08-04T23:26:07.153Z,21.08
2022-08-04T23:28:40.883Z,21.04
2022-08-04T23:31:15.337Z,21.03
2022-08-04T23:33:50.959Z,21.01
2022-08-04T23:36:26.286Z,20.98
2022-08-04T23:39:04.193Z,20.96
2022-08-04T23:41:51.022Z,20.95
2022-08-04T23:44:26.648Z,20.95
2022-08-04T23:47:05.318Z,20.97
2022-08-04T23:49:43.258Z,20.99
2022-08-04T23:52:28.116Z,20.99
2022-08-04T23:55:00.175Z,21.03
2022-08-04T23:58:05.997Z,21.04
